sensor_id;sensor_type;location;lat;lon;timestamp;P1;durP1;ratioP1;P2;durP2;ratioP2
49978;SDS011;35869;50.990;6.962;2022-11-12T00:02:40;9.03;;;5.73;;
49978;SDS011;35869;50.990;6.962;2022-11-12T00:07:40;7.25;;;6.00;;
49978;SDS011;35869;50.990;6.962;2022-11-12T00:12:41;6.97;;;5.45;;
49978;SDS011;35869;50.990;6.962;2022-11-12T00:17:41;10.43;;;5.37;;
49978;SDS011;35869;50.990;6.962;2022-11-12T00:22:42;9.52;;;5.55;;
49978;SDS011;35869;50.990;6.962;2022-11-12T00:27:42;7.90;;;5.47;;
49978;SDS011;35869;50.990;6.962;2022-11-12T00:32:42;8.73;;;5.43;;
49978;SDS011;35869;50.990;6.962;2022-11-12T00:37:43;8.05;;;6.10;;
49978;SDS011;35869;50.990;6.962;2022-11-12T00:42:43;6.70;;;4.90;;
49978;SDS011;35869;50.990;6.962;2022-11-12T00:47:43;9.02;;;6.22;;
49978;SDS011;35869;50.990;6.962;2022-11-12T00:52:43;6.97;;;5.87;;
49978;SDS011;35869;50.990;6.962;2022-11-12T00:57:44;5.88;;;5.28;;
49978;SDS011;35869;50.990;6.962;2022-11-12T01:02:44;7.90;;;6.05;;
49978;SDS011;35869;50.990;6.962;2022-11-12T01:07:45;6.28;;;5.63;;
49978;SDS011;35869;50.990;6.962;2022-11-12T01:12:45;7.70;;;6.23;;
49978;SDS011;35869;50.990;6.962;2022-11-12T01:17:46;9.82;;;5.60;;
49978;SDS011;35869;50.990;6.962;2022-11-12T01:22:46;7.18;;;5.65;;
49978;SDS011;35869;50.990;6.962;2022-11-12T01:27:46;12.15;;;6.55;;
49978;SDS011;35869;50.990;6.962;2022-11-12T01:32:46;7.32;;;5.47;;
49978;SDS011;35869;50.990;6.962;2022-11-12T01:37:47;6.72;;;5.85;;
49978;SDS011;35869;50.990;6.962;2022-11-12T01:42:50;12.25;;;4.93;;
49978;SDS011;35869;50.990;6.962;2022-11-12T01:47:51;6.78;;;5.30;;
49978;SDS011;35869;50.990;6.962;2022-11-12T01:52:55;8.47;;;6.80;;
49978;SDS011;35869;50.990;6.962;2022-11-12T01:58:08;13.25;;;5.70;;
49978;SDS011;35869;50.990;6.962;2022-11-12T02:03:15;7.63;;;5.70;;
49978;SDS011;35869;50.990;6.962;2022-11-12T02:08:22;8.68;;;5.80;;
49978;SDS011;35869;50.990;6.962;2022-11-12T02:13:24;8.13;;;5.80;;
49978;SDS011;35869;50.990;6.962;2022-11-12T02:18:24;9.23;;;5.93;;
49978;SDS011;35869;50.990;6.962;2022-11-12T02:23:24;7.25;;;5.93;;
49978;SDS011;35869;50.990;6.962;2022-11-12T02:28:24;7.28;;;6.05;;
49978;SDS011;35869;50.990;6.962;2022-11-12T02:33:26;10.63;;;6.78;;
49978;SDS011;35869;50.990;6.962;2022-11-12T02:38:26;11.02;;;5.95;;
49978;SDS011;35869;50.990;6.962;2022-11-12T02:43:26;8.02;;;5.90;;
49978;SDS011;35869;50.990;6.962;2022-11-12T02:48:26;8.05;;;5.10;;
49978;SDS011;35869;50.990;6.962;2022-11-12T02:53:27;6.82;;;5.43;;
49978;SDS011;35869;50.990;6.962;2022-11-12T02:58:27;7.53;;;5.77;;
49978;SDS011;35869;50.990;6.962;2022-11-12T03:03:28;10.68;;;5.88;;
49978;SDS011;35869;50.990;6.962;2022-11-12T03:08:28;7.53;;;5.40;;
49978;SDS011;35869;50.990;6.962;2022-11-12T03:13:28;6.47;;;5.38;;
49978;SDS011;35869;50.990;6.962;2022-11-12T03:18:29;8.63;;;5.30;;
49978;SDS011;35869;50.990;6.962;2022-11-12T03:23:30;5.97;;;5.40;;
49978;SDS011;35869;50.990;6.962;2022-11-12T03:28:30;9.93;;;6.40;;
49978;SDS011;35869;50.990;6.962;2022-11-12T03:33:31;9.00;;;5.53;;
49978;SDS011;35869;50.990;6.962;2022-11-12T03:38:31;6.38;;;4.63;;
49978;SDS011;35869;50.990;6.962;2022-11-12T03:43:31;7.72;;;4.95;;
49978;SDS011;35869;50.990;6.962;2022-11-12T03:48:31;7.30;;;4.95;;
49978;SDS011;35869;50.990;6.962;2022-11-12T03:53:32;11.37;;;5.23;;
49978;SDS011;35869;50.990;6.962;2022-11-12T03:58:32;8.50;;;5.32;;
49978;SDS011;35869;50.990;6.962;2022-11-12T04:03:32;6.38;;;5.30;;
49978;SDS011;35869;50.990;6.962;2022-11-12T04:08:32;8.90;;;5.47;;
49978;SDS011;35869;50.990;6.962;2022-11-12T04:13:33;10.85;;;6.25;;
49978;SDS011;35869;50.990;6.962;2022-11-12T04:18:34;7.15;;;5.45;;
49978;SDS011;35869;50.990;6.962;2022-11-12T04:23:34;7.35;;;5.53;;
49978;SDS011;35869;50.990;6.962;2022-11-12T04:28:34;7.30;;;5.15;;
49978;SDS011;35869;50.990;6.962;2022-11-12T04:33:34;5.78;;;5.18;;
49978;SDS011;35869;50.990;6.962;2022-11-12T04:38:34;7.38;;;5.47;;
49978;SDS011;35869;50.990;6.962;2022-11-12T04:43:35;7.47;;;5.78;;
49978;SDS011;35869;50.990;6.962;2022-11-12T04:48:35;8.13;;;4.68;;
49978;SDS011;35869;50.990;6.962;2022-11-12T04:53:35;6.50;;;5.57;;
49978;SDS011;35869;50.990;6.962;2022-11-12T04:58:35;6.35;;;5.50;;
49978;SDS011;35869;50.990;6.962;2022-11-12T05:03:36;5.95;;;4.68;;
49978;SDS011;35869;50.990;6.962;2022-11-12T05:08:36;10.52;;;5.88;;
49978;SDS011;35869;50.990;6.962;2022-11-12T05:13:36;8.90;;;6.30;;
49978;SDS011;35869;50.990;6.962;2022-11-12T05:18:36;7.78;;;6.30;;
49978;SDS011;35869;50.990;6.962;2022-11-12T05:23:36;10.57;;;5.80;;
49978;SDS011;35869;50.990;6.962;2022-11-12T05:28:37;7.97;;;6.30;;
49978;SDS011;35869;50.990;6.962;2022-11-12T05:33:37;9.57;;;6.00;;
49978;SDS011;35869;50.990;6.962;2022-11-12T05:38:37;8.48;;;5.95;;
49978;SDS011;35869;50.990;6.962;2022-11-12T05:43:37;7.82;;;5.57;;
49978;SDS011;35869;50.990;6.962;2022-11-12T05:48:38;8.68;;;5.72;;
49978;SDS011;35869;50.990;6.962;2022-11-12T05:53:38;7.90;;;6.38;;
49978;SDS011;35869;50.990;6.962;2022-11-12T05:58:39;6.82;;;5.00;;
49978;SDS011;35869;50.990;6.962;2022-11-12T06:03:39;7.40;;;5.57;;
49978;SDS011;35869;50.990;6.962;2022-11-12T06:08:40;7.70;;;5.75;;
49978;SDS011;35869;50.990;6.962;2022-11-12T06:13:40;6.43;;;5.50;;
49978;SDS011;35869;50.990;6.962;2022-11-12T06:18:40;7.33;;;5.77;;
49978;SDS011;35869;50.990;6.962;2022-11-12T06:23:40;7.97;;;5.18;;
49978;SDS011;35869;50.990;6.962;2022-11-12T06:28:41;8.25;;;5.85;;
49978;SDS011;35869;50.990;6.962;2022-11-12T06:33:41;7.10;;;5.65;;
49978;SDS011;35869;50.990;6.962;2022-11-12T06:38:41;8.77;;;6.77;;
49978;SDS011;35869;50.990;6.962;2022-11-12T06:43:42;7.07;;;6.13;;
49978;SDS011;35869;50.990;6.962;2022-11-12T06:48:42;7.30;;;5.97;;
49978;SDS011;35869;50.990;6.962;2022-11-12T06:53:43;12.57;;;6.28;;
49978;SDS011;35869;50.990;6.962;2022-11-12T06:58:43;7.20;;;5.35;;
49978;SDS011;35869;50.990;6.962;2022-11-12T07:03:43;10.70;;;6.50;;
49978;SDS011;35869;50.990;6.962;2022-11-12T07:08:44;9.52;;;6.57;;
49978;SDS011;35869;50.990;6.962;2022-11-12T07:13:45;7.45;;;5.70;;
49978;SDS011;35869;50.990;6.962;2022-11-12T07:18:47;8.25;;;6.55;;
49978;SDS011;35869;50.990;6.962;2022-11-12T07:23:48;7.65;;;6.38;;
49978;SDS011;35869;50.990;6.962;2022-11-12T07:28:49;11.40;;;7.00;;
49978;SDS011;35869;50.990;6.962;2022-11-12T07:33:51;7.78;;;6.55;;
49978;SDS011;35869;50.990;6.962;2022-11-12T07:38:51;8.73;;;6.77;;
49978;SDS011;35869;50.990;6.962;2022-11-12T07:43:52;8.20;;;6.65;;
49978;SDS011;35869;50.990;6.962;2022-11-12T07:48:53;6.93;;;5.32;;
49978;SDS011;35869;50.990;6.962;2022-11-12T07:53:54;8.67;;;6.13;;
49978;SDS011;35869;50.990;6.962;2022-11-12T07:58:55;10.27;;;6.28;;
49978;SDS011;35869;50.990;6.962;2022-11-12T08:03:56;8.68;;;5.88;;
49978;SDS011;35869;50.990;6.962;2022-11-12T08:08:58;8.68;;;6.50;;
49978;SDS011;35869;50.990;6.962;2022-11-12T08:13:59;7.65;;;5.80;;
49978;SDS011;35869;50.990;6.962;2022-11-12T08:19:00;6.80;;;6.07;;
49978;SDS011;35869;50.990;6.962;2022-11-12T08:24:00;11.27;;;6.03;;
49978;SDS011;35869;50.990;6.962;2022-11-12T08:29:01;6.53;;;5.40;;
49978;SDS011;35869;50.990;6.962;2022-11-12T08:34:02;8.10;;;5.45;;
49978;SDS011;35869;50.990;6.962;2022-11-12T08:39:03;8.38;;;6.47;;
49978;SDS011;35869;50.990;6.962;2022-11-12T08:44:03;6.00;;;5.40;;
49978;SDS011;35869;50.990;6.962;2022-11-12T08:49:04;8.60;;;7.37;;
49978;SDS011;35869;50.990;6.962;2022-11-12T08:54:04;7.22;;;4.90;;
49978;SDS011;35869;50.990;6.962;2022-11-12T08:59:04;8.03;;;6.40;;
49978;SDS011;35869;50.990;6.962;2022-11-12T09:09:06;10.32;;;5.45;;
49978;SDS011;35869;50.990;6.962;2022-11-12T09:14:06;10.55;;;5.57;;
49978;SDS011;35869;50.990;6.962;2022-11-12T09:19:06;5.72;;;5.10;;
49978;SDS011;35869;50.990;6.962;2022-11-12T09:24:06;7.60;;;5.45;;
49978;SDS011;35869;50.990;6.962;2022-11-12T09:29:07;6.07;;;5.47;;
49978;SDS011;35869;50.990;6.962;2022-11-12T09:34:07;12.18;;;4.97;;
49978;SDS011;35869;50.990;6.962;2022-11-12T09:39:07;9.02;;;4.85;;
49978;SDS011;35869;50.990;6.962;2022-11-12T09:49:20;9.30;;;4.65;;
49978;SDS011;35869;50.990;6.962;2022-11-12T09:54:25;10.57;;;5.28;;
49978;SDS011;35869;50.990;6.962;2022-11-12T09:59:28;6.18;;;4.78;;
49978;SDS011;35869;50.990;6.962;2022-11-12T10:10:15;6.70;;;4.85;;
49978;SDS011;35869;50.990;6.962;2022-11-12T10:26:55;7.10;;;5.50;;
49978;SDS011;35869;50.990;6.962;2022-11-12T10:36:59;6.60;;;4.78;;
49978;SDS011;35869;50.990;6.962;2022-11-12T10:42:03;5.70;;;4.65;;
49978;SDS011;35869;50.990;6.962;2022-11-12T10:47:37;5.88;;;4.47;;
49978;SDS011;35869;50.990;6.962;2022-11-12T10:52:31;6.90;;;5.05;;
49978;SDS011;35869;50.990;6.962;2022-11-12T10:57:31;8.35;;;5.15;;
49978;SDS011;35869;50.990;6.962;2022-11-12T11:02:32;6.25;;;5.65;;
49978;SDS011;35869;50.990;6.962;2022-11-12T11:07:32;7.03;;;5.00;;
49978;SDS011;35869;50.990;6.962;2022-11-12T11:12:32;7.70;;;5.25;;
49978;SDS011;35869;50.990;6.962;2022-11-12T11:17:33;7.68;;;4.78;;
49978;SDS011;35869;50.990;6.962;2022-11-12T11:22:38;6.95;;;5.05;;
49978;SDS011;35869;50.990;6.962;2022-11-12T11:32:57;6.60;;;5.00;;
49978;SDS011;35869;50.990;6.962;2022-11-12T11:53:46;6.65;;;4.68;;
49978;SDS011;35869;50.990;6.962;2022-11-12T12:09:19;7.25;;;5.03;;
49978;SDS011;35869;50.990;6.962;2022-11-12T12:24:49;5.72;;;4.70;;
49978;SDS011;35869;50.990;6.962;2022-11-12T12:29:56;6.40;;;4.78;;
49978;SDS011;35869;50.990;6.962;2022-11-12T12:40:31;6.55;;;4.25;;
49978;SDS011;35869;50.990;6.962;2022-11-12T12:45:43;5.90;;;4.10;;
49978;SDS011;35869;50.990;6.962;2022-11-12T12:50:45;6.60;;;4.78;;
49978;SDS011;35869;50.990;6.962;2022-11-12T12:55:48;6.38;;;4.30;;
49978;SDS011;35869;50.990;6.962;2022-11-12T13:00:50;5.07;;;4.05;;
49978;SDS011;35869;50.990;6.962;2022-11-12T13:06:04;3.65;;;3.33;;
49978;SDS011;35869;50.990;6.962;2022-11-12T13:11:06;6.30;;;4.47;;
49978;SDS011;35869;50.990;6.962;2022-11-12T13:16:07;5.90;;;3.85;;
49978;SDS011;35869;50.990;6.962;2022-11-12T13:26:35;6.50;;;3.80;;
49978;SDS011;35869;50.990;6.962;2022-11-12T13:31:36;4.70;;;3.75;;
49978;SDS011;35869;50.990;6.962;2022-11-12T13:36:36;3.88;;;3.20;;
49978;SDS011;35869;50.990;6.962;2022-11-12T13:41:37;4.40;;;3.13;;
49978;SDS011;35869;50.990;6.962;2022-11-12T13:46:38;4.18;;;2.92;;
49978;SDS011;35869;50.990;6.962;2022-11-12T13:56:45;5.15;;;3.40;;
49978;SDS011;35869;50.990;6.962;2022-11-12T14:01:45;4.55;;;3.55;;
49978;SDS011;35869;50.990;6.962;2022-11-12T14:06:55;5.25;;;3.80;;
49978;SDS011;35869;50.990;6.962;2022-11-12T14:12:35;5.05;;;3.55;;
49978;SDS011;35869;50.990;6.962;2022-11-12T14:22:46;4.30;;;2.90;;
49978;SDS011;35869;50.990;6.962;2022-11-12T14:27:47;3.95;;;3.05;;
49978;SDS011;35869;50.990;6.962;2022-11-12T14:32:50;3.40;;;2.35;;
49978;SDS011;35869;50.990;6.962;2022-11-12T14:37:53;4.32;;;3.15;;
49978;SDS011;35869;50.990;6.962;2022-11-12T14:42:54;3.95;;;2.38;;
49978;SDS011;35869;50.990;6.962;2022-11-12T14:47:55;4.28;;;3.17;;
49978;SDS011;35869;50.990;6.962;2022-11-12T14:53:00;4.27;;;3.13;;
49978;SDS011;35869;50.990;6.962;2022-11-12T14:58:10;4.50;;;3.30;;
49978;SDS011;35869;50.990;6.962;2022-11-12T15:03:14;3.63;;;2.97;;
49978;SDS011;35869;50.990;6.962;2022-11-12T15:08:29;7.03;;;4.45;;
49978;SDS011;35869;50.990;6.962;2022-11-12T15:13:36;9.23;;;6.05;;
49978;SDS011;35869;50.990;6.962;2022-11-12T15:18:39;4.25;;;3.20;;
49978;SDS011;35869;50.990;6.962;2022-11-12T15:23:46;4.27;;;3.40;;
49978;SDS011;35869;50.990;6.962;2022-11-12T15:28:57;4.75;;;3.33;;
49978;SDS011;35869;50.990;6.962;2022-11-12T15:39:47;6.13;;;4.00;;
49978;SDS011;35869;50.990;6.962;2022-11-12T15:44:49;5.40;;;3.90;;
49978;SDS011;35869;50.990;6.962;2022-11-12T15:49:57;8.57;;;4.82;;
49978;SDS011;35869;50.990;6.962;2022-11-12T16:00:02;6.07;;;3.72;;
49978;SDS011;35869;50.990;6.962;2022-11-12T16:05:07;7.30;;;3.80;;
49978;SDS011;35869;50.990;6.962;2022-11-12T16:10:12;5.70;;;4.00;;
49978;SDS011;35869;50.990;6.962;2022-11-12T16:15:14;4.57;;;3.63;;
49978;SDS011;35869;50.990;6.962;2022-11-12T16:20:37;3.80;;;2.90;;
49978;SDS011;35869;50.990;6.962;2022-11-12T16:25:39;3.75;;;2.63;;
49978;SDS011;35869;50.990;6.962;2022-11-12T16:30:41;2.92;;;2.30;;
49978;SDS011;35869;50.990;6.962;2022-11-12T16:40:42;4.03;;;2.85;;
49978;SDS011;35869;50.990;6.962;2022-11-12T16:45:44;3.70;;;3.15;;
49978;SDS011;35869;50.990;6.962;2022-11-12T16:50:45;3.75;;;2.53;;
49978;SDS011;35869;50.990;6.962;2022-11-12T16:55:45;4.07;;;3.40;;
49978;SDS011;35869;50.990;6.962;2022-11-12T17:00:45;3.97;;;3.17;;
49978;SDS011;35869;50.990;6.962;2022-11-12T17:05:51;5.03;;;3.38;;
49978;SDS011;35869;50.990;6.962;2022-11-12T17:10:51;4.15;;;3.15;;
49978;SDS011;35869;50.990;6.962;2022-11-12T17:15:55;5.32;;;3.47;;
49978;SDS011;35869;50.990;6.962;2022-11-12T17:20:55;3.90;;;3.17;;
49978;SDS011;35869;50.990;6.962;2022-11-12T17:25:59;4.78;;;3.45;;
49978;SDS011;35869;50.990;6.962;2022-11-12T17:31:04;4.78;;;3.38;;
49978;SDS011;35869;50.990;6.962;2022-11-12T17:36:09;3.78;;;3.08;;
49978;SDS011;35869;50.990;6.962;2022-11-12T17:41:12;4.10;;;3.63;;
49978;SDS011;35869;50.990;6.962;2022-11-12T17:46:13;5.05;;;3.70;;
49978;SDS011;35869;50.990;6.962;2022-11-12T17:51:14;3.58;;;3.08;;
49978;SDS011;35869;50.990;6.962;2022-11-12T17:56:17;3.67;;;3.25;;
49978;SDS011;35869;50.990;6.962;2022-11-12T18:01:21;4.68;;;3.70;;
49978;SDS011;35869;50.990;6.962;2022-11-12T18:06:27;4.40;;;3.65;;
49978;SDS011;35869;50.990;6.962;2022-11-12T18:11:30;6.03;;;4.32;;
49978;SDS011;35869;50.990;6.962;2022-11-12T18:16:36;6.15;;;3.60;;
49978;SDS011;35869;50.990;6.962;2022-11-12T18:21:39;5.78;;;4.30;;
49978;SDS011;35869;50.990;6.962;2022-11-12T18:26:39;7.55;;;5.45;;
49978;SDS011;35869;50.990;6.962;2022-11-12T18:31:40;10.63;;;5.97;;
49978;SDS011;35869;50.990;6.962;2022-11-12T18:36:40;9.50;;;5.53;;
49978;SDS011;35869;50.990;6.962;2022-11-12T18:41:40;7.35;;;6.25;;
49978;SDS011;35869;50.990;6.962;2022-11-12T18:46:40;7.53;;;5.65;;
49978;SDS011;35869;50.990;6.962;2022-11-12T18:51:41;4.80;;;4.30;;
49978;SDS011;35869;50.990;6.962;2022-11-12T18:56:41;4.25;;;3.70;;
49978;SDS011;35869;50.990;6.962;2022-11-12T19:01:41;4.13;;;3.47;;
49978;SDS011;35869;50.990;6.962;2022-11-12T19:06:41;4.18;;;3.78;;
49978;SDS011;35869;50.990;6.962;2022-11-12T19:11:42;6.68;;;4.05;;
49978;SDS011;35869;50.990;6.962;2022-11-12T19:16:42;7.88;;;4.68;;
49978;SDS011;35869;50.990;6.962;2022-11-12T19:21:42;6.05;;;4.95;;
49978;SDS011;35869;50.990;6.962;2022-11-12T19:26:42;5.88;;;4.47;;
49978;SDS011;35869;50.990;6.962;2022-11-12T19:31:43;9.23;;;4.93;;
49978;SDS011;35869;50.990;6.962;2022-11-12T19:36:43;6.80;;;4.72;;
49978;SDS011;35869;50.990;6.962;2022-11-12T19:41:43;6.40;;;4.57;;
49978;SDS011;35869;50.990;6.962;2022-11-12T19:46:43;5.70;;;4.33;;
49978;SDS011;35869;50.990;6.962;2022-11-12T19:51:43;5.32;;;4.22;;
49978;SDS011;35869;50.990;6.962;2022-11-12T19:56:44;12.82;;;4.85;;
49978;SDS011;35869;50.990;6.962;2022-11-12T20:01:44;6.20;;;5.03;;
49978;SDS011;35869;50.990;6.962;2022-11-12T20:06:44;4.97;;;4.45;;
49978;SDS011;35869;50.990;6.962;2022-11-12T20:11:44;4.70;;;4.13;;
49978;SDS011;35869;50.990;6.962;2022-11-12T20:16:45;5.93;;;5.00;;
49978;SDS011;35869;50.990;6.962;2022-11-12T20:21:45;6.75;;;5.13;;
49978;SDS011;35869;50.990;6.962;2022-11-12T20:26:45;6.68;;;5.13;;
49978;SDS011;35869;50.990;6.962;2022-11-12T20:31:45;6.38;;;5.50;;
49978;SDS011;35869;50.990;6.962;2022-11-12T20:36:46;6.07;;;5.45;;
49978;SDS011;35869;50.990;6.962;2022-11-12T20:41:46;6.80;;;6.05;;
49978;SDS011;35869;50.990;6.962;2022-11-12T20:46:46;8.63;;;5.97;;
49978;SDS011;35869;50.990;6.962;2022-11-12T20:51:46;11.00;;;5.97;;
49978;SDS011;35869;50.990;6.962;2022-11-12T20:56:46;8.55;;;6.05;;
49978;SDS011;35869;50.990;6.962;2022-11-12T21:01:47;8.38;;;6.55;;
49978;SDS011;35869;50.990;6.962;2022-11-12T21:06:47;7.30;;;6.50;;
49978;SDS011;35869;50.990;6.962;2022-11-12T21:11:48;9.50;;;5.77;;
49978;SDS011;35869;50.990;6.962;2022-11-12T21:16:48;7.13;;;6.00;;
49978;SDS011;35869;50.990;6.962;2022-11-12T21:21:48;9.00;;;6.60;;
49978;SDS011;35869;50.990;6.962;2022-11-12T21:26:48;11.67;;;6.53;;
49978;SDS011;35869;50.990;6.962;2022-11-12T21:31:49;8.38;;;6.22;;
49978;SDS011;35869;50.990;6.962;2022-11-12T21:36:49;8.85;;;7.15;;
49978;SDS011;35869;50.990;6.962;2022-11-12T21:41:49;9.05;;;6.75;;
49978;SDS011;35869;50.990;6.962;2022-11-12T21:46:49;7.20;;;6.32;;
49978;SDS011;35869;50.990;6.962;2022-11-12T21:51:50;15.07;;;6.68;;
49978;SDS011;35869;50.990;6.962;2022-11-12T21:56:50;13.10;;;8.18;;
49978;SDS011;35869;50.990;6.962;2022-11-12T22:01:50;8.93;;;7.38;;
49978;SDS011;35869;50.990;6.962;2022-11-12T22:06:50;7.45;;;6.72;;
49978;SDS011;35869;50.990;6.962;2022-11-12T22:11:51;8.10;;;6.88;;
49978;SDS011;35869;50.990;6.962;2022-11-12T22:16:51;8.00;;;6.43;;
49978;SDS011;35869;50.990;6.962;2022-11-12T22:21:51;10.18;;;6.88;;
49978;SDS011;35869;50.990;6.962;2022-11-12T22:26:51;9.90;;;7.03;;
49978;SDS011;35869;50.990;6.962;2022-11-12T22:31:52;8.48;;;6.28;;
49978;SDS011;35869;50.990;6.962;2022-11-12T22:36:52;8.52;;;7.18;;
49978;SDS011;35869;50.990;6.962;2022-11-12T22:41:52;9.60;;;6.85;;
49978;SDS011;35869;50.990;6.962;2022-11-12T22:46:52;8.43;;;6.30;;
49978;SDS011;35869;50.990;6.962;2022-11-12T22:51:52;7.97;;;6.20;;
49978;SDS011;35869;50.990;6.962;2022-11-12T22:56:53;7.57;;;6.05;;
49978;SDS011;35869;50.990;6.962;2022-11-12T23:01:53;8.52;;;6.47;;
49978;SDS011;35869;50.990;6.962;2022-11-12T23:06:53;8.02;;;5.93;;
49978;SDS011;35869;50.990;6.962;2022-11-12T23:11:53;6.80;;;6.05;;
49978;SDS011;35869;50.990;6.962;2022-11-12T23:16:56;8.52;;;6.25;;
49978;SDS011;35869;50.990;6.962;2022-11-12T23:21:57;8.35;;;6.65;;
49978;SDS011;35869;50.990;6.962;2022-11-12T23:26:57;8.67;;;5.47;;
49978;SDS011;35869;50.990;6.962;2022-11-12T23:31:58;7.57;;;6.45;;
49978;SDS011;35869;50.990;6.962;2022-11-12T23:36:58;7.65;;;6.30;;
49978;SDS011;35869;50.990;6.962;2022-11-12T23:41:58;7.00;;;6.30;;
49978;SDS011;35869;50.990;6.962;2022-11-12T23:46:59;6.78;;;6.00;;
49978;SDS011;35869;50.990;6.962;2022-11-12T23:51:59;8.27;;;6.05;;
49978;SDS011;35869;50.990;6.962;2022-11-12T23:56:59;7.10;;;5.90;;
